Time;durP1;ratioP1;P1;durP2;ratioP2;P2;SDS_P1;SDS_P2;PMS_P1;PMS_P2;Temp;Humidity;BMP_temperature;BMP_pressure;BME280_temperature;BME280_humidity;BME280_pressure;Samples;Min_cycle;Max_cycle;Signal;HPM_P1;HPM_P2
2023/10/22 00:02:22;;;;;;;7.82;3.85;;;;;;;;;;4988591;28;20015;-77
2023/10/22 00:04:48;;;;;;;7.00;3.63;;;;;;;;;;4972797;28;20019;-77
2023/10/22 00:07:14;;;;;;;10.20;3.95;;;;;;;;;;4971078;28;20039;-78
2023/10/22 00:09:41;;;;;;;7.75;3.88;;;;;;;;;;4971404;28;20051;-78
2023/10/22 00:12:07;;;;;;;6.32;4.15;;;;;;;;;;4949497;28;20054;-78
2023/10/22 00:14:33;;;;;;;12.10;4.28;;;;;;;;;;4968527;28;20038;-78
2023/10/22 00:17:00;;;;;;;9.88;3.97;;;;;;;;;;4965750;28;20019;-78
2023/10/22 00:19:45;;;;;;;8.85;4.22;;;;;;;;;;4952716;28;20503;-78
2023/10/22 00:22:14;;;;;;;12.68;4.25;;;;;;;;;;4965852;28;20035;-78
2023/10/22 00:24:41;;;;;;;10.10;4.28;;;;;;;;;;4967429;28;20042;-78
2023/10/22 00:27:07;;;;;;;9.82;4.30;;;;;;;;;;4950532;28;20051;-78
2023/10/22 00:29:33;;;;;;;11.68;4.63;;;;;;;;;;4949254;28;20066;-78
2023/10/22 00:31:59;;;;;;;8.63;4.43;;;;;;;;;;4966864;28;20023;-77
2023/10/22 00:34:25;;;;;;;13.27;4.80;;;;;;;;;;4968334;28;20059;-77
2023/10/22 00:36:53;;;;;;;10.95;4.28;;;;;;;;;;4968888;28;20027;-78
2023/10/22 00:39:19;;;;;;;11.52;4.55;;;;;;;;;;4970338;28;20038;-77
2023/10/22 00:41:45;;;;;;;12.20;4.20;;;;;;;;;;4954144;28;20074;-77
2023/10/22 00:44:11;;;;;;;11.38;4.03;;;;;;;;;;4968266;28;20043;-77
2023/10/22 00:46:38;;;;;;;13.82;4.18;;;;;;;;;;4949300;28;20074;-77
2023/10/22 00:49:04;;;;;;;9.35;4.20;;;;;;;;;;4968913;28;20027;-77
2023/10/22 00:51:30;;;;;;;9.05;4.55;;;;;;;;;;4952415;28;20122;-77
2023/10/22 00:53:58;;;;;;;8.68;3.63;;;;;;;;;;4971059;28;20613;-77
2023/10/22 00:56:25;;;;;;;9.95;3.60;;;;;;;;;;4937225;28;20023;-77
2023/10/22 00:58:53;;;;;;;35.25;5.18;;;;;;;;;;4952736;28;20026;-79
2023/10/22 01:01:19;;;;;;;11.40;3.83;;;;;;;;;;4958734;28;20061;-78
2023/10/22 01:03:46;;;;;;;9.75;3.10;;;;;;;;;;4974198;28;20484;-77
2023/10/22 01:06:13;;;;;;;9.82;3.50;;;;;;;;;;4967424;28;20038;-76
2023/10/22 01:08:40;;;;;;;8.80;3.53;;;;;;;;;;4949777;28;20118;-77
2023/10/22 01:11:10;;;;;;;6.43;3.30;;;;;;;;;;4938055;28;20039;-76
2023/10/22 01:13:36;;;;;;;13.95;5.55;;;;;;;;;;4951704;28;20038;-78
2023/10/22 01:16:03;;;;;;;6.63;3.22;;;;;;;;;;4938146;28;20069;-78
2023/10/22 01:18:29;;;;;;;10.50;3.92;;;;;;;;;;4956916;28;20345;-78
2023/10/22 01:20:56;;;;;;;8.27;3.78;;;;;;;;;;4955599;28;20063;-78
2023/10/22 01:23:22;;;;;;;11.00;3.65;;;;;;;;;;4966843;28;20019;-81
2023/10/22 01:25:49;;;;;;;7.00;3.38;;;;;;;;;;4953017;28;20500;-76
2023/10/22 01:28:15;;;;;;;8.85;3.53;;;;;;;;;;4969666;28;20027;-78
2023/10/22 01:30:41;;;;;;;8.20;3.47;;;;;;;;;;4952590;28;20042;-77
2023/10/22 01:33:08;;;;;;;6.20;3.15;;;;;;;;;;4934223;28;20090;-77
2023/10/22 01:35:35;;;;;;;6.50;3.45;;;;;;;;;;4951551;28;20042;-79
2023/10/22 01:38:01;;;;;;;4.85;2.83;;;;;;;;;;4965329;28;20066;-78
2023/10/22 01:40:27;;;;;;;7.97;3.10;;;;;;;;;;4970418;28;20042;-77
2023/10/22 01:42:53;;;;;;;6.93;3.63;;;;;;;;;;4949878;28;20039;-80
2023/10/22 01:45:20;;;;;;;5.78;3.00;;;;;;;;;;4971545;28;20038;-79
2023/10/22 01:47:46;;;;;;;7.75;3.22;;;;;;;;;;4952548;28;20039;-77
2023/10/22 01:50:13;;;;;;;5.43;2.72;;;;;;;;;;4952225;28;20102;-79
2023/10/22 01:52:39;;;;;;;6.65;3.40;;;;;;;;;;4951814;28;20070;-77
2023/10/22 01:55:06;;;;;;;6.97;3.47;;;;;;;;;;4969252;28;20027;-78
2023/10/22 01:57:33;;;;;;;5.50;3.53;;;;;;;;;;4952919;28;20042;-78
2023/10/22 01:59:59;;;;;;;5.40;3.25;;;;;;;;;;4953710;28;20089;-78
2023/10/22 02:02:26;;;;;;;5.35;3.00;;;;;;;;;;4969983;28;20417;-79
2023/10/22 02:04:52;;;;;;;5.32;2.90;;;;;;;;;;4953873;28;20179;-80
2023/10/22 02:07:18;;;;;;;4.38;2.78;;;;;;;;;;4970169;28;20039;-77
2023/10/22 02:09:45;;;;;;;6.07;2.88;;;;;;;;;;4952224;28;20038;-77
2023/10/22 02:12:12;;;;;;;4.43;2.60;;;;;;;;;;4953223;28;20027;-79
2023/10/22 02:14:38;;;;;;;13.18;3.28;;;;;;;;;;4953892;28;20070;-77
2023/10/22 02:17:04;;;;;;;4.50;2.75;;;;;;;;;;4969483;28;20039;-78
2023/10/22 02:19:30;;;;;;;4.63;2.60;;;;;;;;;;4966031;28;20046;-77
2023/10/22 02:21:56;;;;;;;4.53;2.67;;;;;;;;;;4952221;28;20022;-77
2023/10/22 02:24:22;;;;;;;4.78;2.92;;;;;;;;;;4951459;28;20033;-76
2023/10/22 02:26:49;;;;;;;3.92;2.78;;;;;;;;;;4969709;28;20452;-78
2023/10/22 02:29:15;;;;;;;4.85;2.58;;;;;;;;;;4952252;28;20031;-79
2023/10/22 02:31:44;;;;;;;4.88;3.05;;;;;;;;;;4936515;28;20027;-77
2023/10/22 02:34:12;;;;;;;7.03;3.13;;;;;;;;;;4936740;28;20460;-79
2023/10/22 02:36:38;;;;;;;5.00;2.97;;;;;;;;;;4969615;28;20515;-77
2023/10/22 02:39:04;;;;;;;5.47;2.78;;;;;;;;;;4951613;28;20042;-77
2023/10/22 02:41:30;;;;;;;5.15;3.03;;;;;;;;;;4952267;28;20628;-77
2023/10/22 02:43:57;;;;;;;8.57;3.40;;;;;;;;;;4936399;28;20046;-79
2023/10/22 02:46:24;;;;;;;10.13;4.00;;;;;;;;;;4950293;28;20031;-77
2023/10/22 02:48:50;;;;;;;6.95;3.72;;;;;;;;;;4950629;28;20335;-76
2023/10/22 02:51:16;;;;;;;9.73;3.88;;;;;;;;;;4950832;28;20046;-77
2023/10/22 02:53:43;;;;;;;15.13;3.45;;;;;;;;;;4950956;28;20062;-79
2023/10/22 02:56:09;;;;;;;12.98;2.85;;;;;;;;;;4948436;28;20125;-79
2023/10/22 02:58:38;;;;;;;16.48;3.33;;;;;;;;;;4967955;28;20046;-78
2023/10/22 03:01:05;;;;;;;12.73;2.53;;;;;;;;;;4950829;28;20106;-77
2023/10/22 03:03:32;;;;;;;14.95;2.80;;;;;;;;;;4948712;28;20130;-77
2023/10/22 03:05:58;;;;;;;12.52;2.80;;;;;;;;;;4967050;28;20026;-76
2023/10/22 03:08:25;;;;;;;9.48;2.63;;;;;;;;;;4970698;28;20034;-79
2023/10/22 03:10:51;;;;;;;14.90;2.72;;;;;;;;;;4954740;28;20495;-76
2023/10/22 03:13:17;;;;;;;18.23;2.70;;;;;;;;;;4937998;28;20034;-77
2023/10/22 03:15:43;;;;;;;14.45;3.28;;;;;;;;;;4968289;28;20043;-79
2023/10/22 03:18:10;;;;;;;16.70;3.30;;;;;;;;;;4951064;28;20031;-79
2023/10/22 03:20:36;;;;;;;17.30;3.72;;;;;;;;;;4968199;28;20035;-78
2023/10/22 03:23:03;;;;;;;11.65;4.78;;;;;;;;;;4951179;28;20039;-79
2023/10/22 03:25:29;;;;;;;12.73;5.78;;;;;;;;;;4954298;28;20077;-77
2023/10/22 03:27:55;;;;;;;9.00;5.28;;;;;;;;;;4968769;28;20519;-78
2023/10/22 03:30:22;;;;;;;12.68;5.50;;;;;;;;;;4951498;28;20488;-78
2023/10/22 03:33:08;;;;;;;13.32;7.13;;;;;;;;;;4964903;28;20642;-78
2023/10/22 03:35:36;;;;;;;14.82;7.97;;;;;;;;;;4950179;28;20445;-78
2023/10/22 03:38:03;;;;;;;16.77;8.80;;;;;;;;;;4952467;28;20057;-78
2023/10/22 03:40:29;;;;;;;13.10;8.20;;;;;;;;;;4949449;28;20086;-78
2023/10/22 03:42:55;;;;;;;15.32;9.00;;;;;;;;;;4947134;28;20170;-77
2023/10/22 03:45:21;;;;;;;19.73;10.65;;;;;;;;;;4968766;28;20047;-77
2023/10/22 03:47:47;;;;;;;21.33;8.93;;;;;;;;;;4951067;28;20038;-78
2023/10/22 03:50:14;;;;;;;21.42;9.27;;;;;;;;;;4950305;28;20030;-79
2023/10/22 03:52:40;;;;;;;18.35;10.23;;;;;;;;;;4935094;28;20039;-78
2023/10/22 03:55:06;;;;;;;19.45;9.63;;;;;;;;;;4968328;28;20046;-79
2023/10/22 03:57:33;;;;;;;19.67;10.05;;;;;;;;;;4950486;28;20042;-78
2023/10/22 03:59:59;;;;;;;23.20;11.27;;;;;;;;;;4948600;28;20039;-78
2023/10/22 04:02:25;;;;;;;28.02;12.10;;;;;;;;;;4953506;28;20046;-78
2023/10/22 04:04:51;;;;;;;25.02;12.80;;;;;;;;;;4948980;28;21038;-78
2023/10/22 04:07:17;;;;;;;20.23;11.65;;;;;;;;;;4964072;28;20043;-78
2023/10/22 04:09:43;;;;;;;26.05;12.43;;;;;;;;;;4942666;28;20106;-79
2023/10/22 04:12:10;;;;;;;22.27;11.27;;;;;;;;;;4975801;28;20058;-78
2023/10/22 04:14:36;;;;;;;18.65;9.93;;;;;;;;;;4967612;28;20027;-78
2023/10/22 04:17:04;;;;;;;25.27;10.00;;;;;;;;;;4951340;28;20042;-76
2023/10/22 04:19:30;;;;;;;22.50;8.90;;;;;;;;;;4937898;28;20082;-77
2023/10/22 04:21:56;;;;;;;19.08;8.38;;;;;;;;;;4970266;28;20023;-77
2023/10/22 04:24:22;;;;;;;19.85;7.57;;;;;;;;;;4951460;28;20035;-78
2023/10/22 04:26:49;;;;;;;19.10;6.95;;;;;;;;;;4953564;28;20043;-77
2023/10/22 04:29:15;;;;;;;17.77;6.28;;;;;;;;;;4956142;28;20050;-77
2023/10/22 04:31:41;;;;;;;17.23;5.50;;;;;;;;;;4959477;28;20125;-77
2023/10/22 04:34:07;;;;;;;13.35;5.00;;;;;;;;;;4954119;28;20027;-77
2023/10/22 04:36:34;;;;;;;11.88;5.05;;;;;;;;;;4970178;28;20050;-77
2023/10/22 04:39:00;;;;;;;12.90;5.32;;;;;;;;;;4932039;28;20038;-76
2023/10/22 04:41:26;;;;;;;14.05;4.80;;;;;;;;;;4969727;28;20039;-76
2023/10/22 04:43:52;;;;;;;14.45;5.45;;;;;;;;;;4953531;28;20177;-77
2023/10/22 04:46:18;;;;;;;11.05;4.28;;;;;;;;;;4937571;28;20082;-77
2023/10/22 04:48:44;;;;;;;9.75;4.05;;;;;;;;;;4969744;28;20510;-79
2023/10/22 04:51:11;;;;;;;14.05;4.22;;;;;;;;;;4971620;28;20118;-76
2023/10/22 04:53:37;;;;;;;14.02;4.53;;;;;;;;;;4971987;28;20038;-76
2023/10/22 04:56:05;;;;;;;14.68;4.35;;;;;;;;;;4969653;28;20041;-77
2023/10/22 04:58:32;;;;;;;11.68;4.60;;;;;;;;;;4970833;28;20049;-79
2023/10/22 05:00:59;;;;;;;18.73;5.30;;;;;;;;;;4953665;28;20409;-78
2023/10/22 05:03:25;;;;;;;17.20;6.45;;;;;;;;;;4955297;28;20030;-78
2023/10/22 05:05:51;;;;;;;18.40;6.40;;;;;;;;;;4947405;28;20062;-81
2023/10/22 05:08:17;;;;;;;15.55;6.35;;;;;;;;;;4972312;28;20046;-78
2023/10/22 05:10:44;;;;;;;14.48;6.57;;;;;;;;;;4952165;28;20062;-77
2023/10/22 05:13:10;;;;;;;13.18;6.53;;;;;;;;;;4951659;28;20038;-77
2023/10/22 05:15:36;;;;;;;14.27;6.72;;;;;;;;;;4967957;28;20019;-76
2023/10/22 05:18:09;;;;;;;17.05;7.30;;;;;;;;;;4952900;28;20038;-78
2023/10/22 05:20:35;;;;;;;19.70;6.72;;;;;;;;;;4970429;28;20042;-79
2023/10/22 05:23:05;;;;;;;18.25;7.20;;;;;;;;;;4950742;28;20653;-78
2023/10/22 05:25:31;;;;;;;18.05;6.78;;;;;;;;;;4970189;28;20082;-78
2023/10/22 05:27:57;;;;;;;16.00;6.72;;;;;;;;;;4953961;28;20053;-77
2023/10/22 05:30:23;;;;;;;24.20;7.75;;;;;;;;;;4954112;28;20035;-79
2023/10/22 05:32:49;;;;;;;16.67;6.60;;;;;;;;;;4970264;28;20146;-78
2023/10/22 05:35:16;;;;;;;14.93;6.28;;;;;;;;;;4939875;28;20046;-79
2023/10/22 05:37:43;;;;;;;14.63;7.43;;;;;;;;;;4954430;28;20038;-76
2023/10/22 05:40:11;;;;;;;13.23;7.45;;;;;;;;;;4969014;28;20045;-78
2023/10/22 05:42:37;;;;;;;25.48;8.25;;;;;;;;;;4952423;28;20122;-76
2023/10/22 05:45:04;;;;;;;18.83;8.13;;;;;;;;;;4950382;28;20106;-79
2023/10/22 05:47:32;;;;;;;18.90;9.35;;;;;;;;;;4953780;28;20049;-78
2023/10/22 05:50:01;;;;;;;18.23;7.57;;;;;;;;;;4956178;28;20043;-77
2023/10/22 05:52:28;;;;;;;18.20;7.10;;;;;;;;;;4969386;28;20050;-76
2023/10/22 05:54:55;;;;;;;13.90;7.05;;;;;;;;;;4971330;28;20027;-77
2023/10/22 05:57:23;;;;;;;23.30;6.80;;;;;;;;;;4971273;28;20090;-78
2023/10/22 05:59:49;;;;;;;12.90;6.10;;;;;;;;;;4953958;28;20031;-78
2023/10/22 06:02:15;;;;;;;18.30;6.72;;;;;;;;;;4967716;28;20034;-77
2023/10/22 06:04:41;;;;;;;16.75;6.53;;;;;;;;;;4970835;28;20046;-78
2023/10/22 06:07:08;;;;;;;16.05;6.30;;;;;;;;;;4953714;28;20037;-78
2023/10/22 06:09:37;;;;;;;16.63;6.20;;;;;;;;;;4936973;28;20035;-77
2023/10/22 06:12:03;;;;;;;12.30;5.97;;;;;;;;;;4970138;28;20030;-78
2023/10/22 06:14:30;;;;;;;11.65;5.70;;;;;;;;;;4973721;28;20035;-78
2023/10/22 06:16:56;;;;;;;18.90;6.00;;;;;;;;;;4941477;28;20018;-76
2023/10/22 06:19:22;;;;;;;15.75;5.55;;;;;;;;;;4952547;28;20073;-79
2023/10/22 06:21:48;;;;;;;14.32;5.90;;;;;;;;;;4968916;28;20090;-82
2023/10/22 06:24:14;;;;;;;14.90;6.57;;;;;;;;;;4967305;28;20039;-77
2023/10/22 06:26:40;;;;;;;13.25;7.40;;;;;;;;;;4947579;28;20054;-77
2023/10/22 06:29:06;;;;;;;22.80;7.22;;;;;;;;;;4964862;28;20027;-78
2023/10/22 06:31:32;;;;;;;19.52;7.82;;;;;;;;;;4948721;28;20034;-77
2023/10/22 06:33:59;;;;;;;16.60;7.18;;;;;;;;;;4965902;28;20061;-78
2023/10/22 06:36:25;;;;;;;14.40;8.38;;;;;;;;;;4936287;28;20500;-78
2023/10/22 06:38:51;;;;;;;21.33;9.73;;;;;;;;;;4971957;28;20023;-79
2023/10/22 06:41:18;;;;;;;16.17;8.88;;;;;;;;;;4966974;28;20030;-79
2023/10/22 06:43:45;;;;;;;17.35;9.85;;;;;;;;;;4965989;28;20078;-76
2023/10/22 06:46:13;;;;;;;19.58;10.30;;;;;;;;;;4935360;28;20062;-77
2023/10/22 06:48:39;;;;;;;25.27;10.40;;;;;;;;;;4963471;28;20058;-79
2023/10/22 06:51:13;;;;;;;18.27;10.10;;;;;;;;;;4963370;28;20049;-81
2023/10/22 06:53:39;;;;;;;18.88;10.07;;;;;;;;;;4964710;28;20484;-78
2023/10/22 06:56:07;;;;;;;23.17;10.95;;;;;;;;;;4958600;28;20103;-77
2023/10/22 06:58:33;;;;;;;17.52;10.77;;;;;;;;;;4946558;28;20037;-77
2023/10/22 07:01:05;;;;;;;25.25;10.88;;;;;;;;;;4959921;28;20035;-78
2023/10/22 07:03:33;;;;;;;18.23;11.10;;;;;;;;;;4947297;28;20408;-80
2023/10/22 07:05:59;;;;;;;19.75;10.70;;;;;;;;;;4961545;28;20248;-77
2023/10/22 07:08:26;;;;;;;29.33;11.43;;;;;;;;;;4965471;28;20027;-78
2023/10/22 07:10:52;;;;;;;20.23;11.98;;;;;;;;;;4940900;28;20053;-79
2023/10/22 07:13:20;;;;;;;18.40;10.52;;;;;;;;;;4964570;28;20053;-77
2023/10/22 07:15:47;;;;;;;21.55;10.48;;;;;;;;;;4964146;28;20507;-77
2023/10/22 07:18:13;;;;;;;23.75;11.20;;;;;;;;;;4966272;28;20034;-79
2023/10/22 07:20:39;;;;;;;16.83;11.30;;;;;;;;;;4949389;28;20085;-79
2023/10/22 07:23:06;;;;;;;20.55;10.73;;;;;;;;;;4956771;28;20030;-78
2023/10/22 07:25:33;;;;;;;18.85;10.40;;;;;;;;;;4972056;28;20090;-77
2023/10/22 07:27:59;;;;;;;20.92;10.82;;;;;;;;;;4949965;29;20047;-79
2023/10/22 07:30:25;;;;;;;19.60;11.55;;;;;;;;;;4927737;29;20122;-78
2023/10/22 07:32:52;;;;;;;24.05;10.93;;;;;;;;;;4947060;29;20050;-78
2023/10/22 07:35:19;;;;;;;20.02;10.68;;;;;;;;;;4950552;28;20027;-80
2023/10/22 07:37:45;;;;;;;16.77;10.13;;;;;;;;;;4955166;28;20043;-81
2023/10/22 07:40:15;;;;;;;18.90;9.20;;;;;;;;;;4946432;29;20024;-78
2023/10/22 07:42:41;;;;;;;16.15;8.55;;;;;;;;;;4941883;29;20035;-77
2023/10/22 07:45:08;;;;;;;17.05;8.65;;;;;;;;;;4944676;29;20043;-76
2023/10/22 07:47:35;;;;;;;16.75;8.35;;;;;;;;;;4945452;29;20045;-77
2023/10/22 07:50:01;;;;;;;18.90;9.38;;;;;;;;;;4944358;29;20126;-77
2023/10/22 07:52:28;;;;;;;14.55;8.68;;;;;;;;;;4943902;29;20221;-77
2023/10/22 07:54:54;;;;;;;17.77;8.38;;;;;;;;;;4945734;28;20052;-76
2023/10/22 07:57:20;;;;;;;13.48;7.85;;;;;;;;;;4940994;29;20122;-79
2023/10/22 07:59:46;;;;;;;18.50;7.25;;;;;;;;;;4927201;29;20044;-78
2023/10/22 08:02:14;;;;;;;11.50;6.40;;;;;;;;;;4910042;29;20038;-79
2023/10/22 08:04:41;;;;;;;11.88;6.05;;;;;;;;;;4945902;29;20030;-77
2023/10/22 08:07:07;;;;;;;9.82;5.38;;;;;;;;;;4914327;29;20043;-78
2023/10/22 08:09:33;;;;;;;14.57;5.65;;;;;;;;;;4925804;29;20114;-77
2023/10/22 08:12:00;;;;;;;10.00;4.97;;;;;;;;;;4913840;29;20126;-79
2023/10/22 08:14:26;;;;;;;10.63;4.85;;;;;;;;;;4943363;29;20058;-77
2023/10/22 08:16:52;;;;;;;10.32;4.30;;;;;;;;;;4926119;29;20078;-76
2023/10/22 08:19:18;;;;;;;12.80;4.82;;;;;;;;;;4928350;29;20031;-77
2023/10/22 08:21:44;;;;;;;12.32;4.57;;;;;;;;;;4945401;28;20163;-78
2023/10/22 08:24:10;;;;;;;9.30;5.05;;;;;;;;;;4931254;29;20252;-79
2023/10/22 08:26:36;;;;;;;9.55;4.43;;;;;;;;;;4955623;28;20047;-78
2023/10/22 08:29:03;;;;;;;10.70;4.47;;;;;;;;;;4962928;28;20023;-77
2023/10/22 08:31:29;;;;;;;15.00;4.35;;;;;;;;;;4964130;28;20043;-78
2023/10/22 08:33:55;;;;;;;9.70;4.38;;;;;;;;;;4961500;28;20049;-77
2023/10/22 08:36:22;;;;;;;13.85;5.10;;;;;;;;;;4946209;28;20414;-79
2023/10/22 08:38:48;;;;;;;10.95;4.60;;;;;;;;;;4962713;28;20082;-77
2023/10/22 08:41:17;;;;;;;12.98;4.63;;;;;;;;;;4933736;28;20114;-78
2023/10/22 08:43:45;;;;;;;9.70;3.70;;;;;;;;;;4962526;28;20558;-79
2023/10/22 08:46:11;;;;;;;12.23;5.25;;;;;;;;;;4949434;28;20106;-77
2023/10/22 08:48:38;;;;;;;11.73;4.70;;;;;;;;;;4959732;28;20050;-77
2023/10/22 08:51:05;;;;;;;9.07;4.15;;;;;;;;;;4960351;28;20285;-77
2023/10/22 08:53:31;;;;;;;10.80;3.58;;;;;;;;;;4963014;28;20041;-78
2023/10/22 08:55:58;;;;;;;10.55;4.15;;;;;;;;;;4915984;28;20055;-79
2023/10/22 08:58:24;;;;;;;15.20;4.93;;;;;;;;;;4962568;28;20396;-77
2023/10/22 09:00:51;;;;;;;14.40;4.60;;;;;;;;;;4947592;28;20035;-77
2023/10/22 09:03:18;;;;;;;8.82;4.10;;;;;;;;;;4960242;28;20133;-77
2023/10/22 09:05:45;;;;;;;11.25;3.83;;;;;;;;;;4962801;28;20062;-77
2023/10/22 09:08:11;;;;;;;11.73;3.92;;;;;;;;;;4962459;28;20118;-77
2023/10/22 09:10:37;;;;;;;10.95;4.80;;;;;;;;;;4936966;28;20138;-77
2023/10/22 09:13:07;;;;;;;10.43;4.85;;;;;;;;;;4963406;28;20054;-77
2023/10/22 09:15:37;;;;;;;9.55;4.40;;;;;;;;;;4951727;28;20138;-78
2023/10/22 09:18:04;;;;;;;12.43;4.57;;;;;;;;;;4963007;28;20035;-79
2023/10/22 09:20:30;;;;;;;12.70;4.50;;;;;;;;;;4950881;28;20027;-77
2023/10/22 09:23:19;;;;;;;9.85;4.80;;;;;;;;;;4953156;28;20296;-79
2023/10/22 09:25:47;;;;;;;14.50;4.50;;;;;;;;;;4960970;28;20401;-78
2023/10/22 09:28:14;;;;;;;10.05;4.30;;;;;;;;;;4969114;28;20109;-78
2023/10/22 09:30:40;;;;;;;11.38;5.20;;;;;;;;;;4967792;28;20034;-78
2023/10/22 09:33:08;;;;;;;12.00;4.75;;;;;;;;;;4949356;28;20062;-77
2023/10/22 09:35:35;;;;;;;10.20;4.82;;;;;;;;;;4950901;28;20247;-77
2023/10/22 09:38:01;;;;;;;11.55;4.30;;;;;;;;;;4968395;28;20106;-78
2023/10/22 09:40:28;;;;;;;11.95;4.15;;;;;;;;;;4967821;28;20053;-77
2023/10/22 09:42:54;;;;;;;9.70;4.20;;;;;;;;;;4970363;28;20515;-77
2023/10/22 09:45:24;;;;;;;8.18;3.90;;;;;;;;;;4920610;29;20138;-77
2023/10/22 09:47:50;;;;;;;9.07;4.13;;;;;;;;;;4960207;28;20086;-78
2023/10/22 09:50:19;;;;;;;9.45;3.90;;;;;;;;;;4975584;28;20093;-77
2023/10/22 09:52:45;;;;;;;9.68;4.25;;;;;;;;;;4938063;28;20026;-78
2023/10/22 09:55:14;;;;;;;12.05;4.18;;;;;;;;;;4971684;28;20119;-78
2023/10/22 09:57:40;;;;;;;8.80;4.18;;;;;;;;;;4977520;28;20054;-79
2023/10/22 10:00:12;;;;;;;6.18;3.85;;;;;;;;;;4974551;28;20152;-79
2023/10/22 10:02:42;;;;;;;8.10;3.50;;;;;;;;;;4971250;28;20031;-78
2023/10/22 10:05:12;;;;;;;13.05;4.05;;;;;;;;;;4946426;28;20089;-78
2023/10/22 10:07:41;;;;;;;10.52;3.92;;;;;;;;;;4970114;28;20042;-79
2023/10/22 10:10:08;;;;;;;10.05;3.00;;;;;;;;;;4963833;28;20058;-78
2023/10/22 10:12:36;;;;;;;10.77;3.40;;;;;;;;;;4984393;28;20031;-78
2023/10/22 10:15:03;;;;;;;6.57;3.15;;;;;;;;;;4978009;28;20046;-77
2023/10/22 10:17:30;;;;;;;7.72;2.85;;;;;;;;;;4972834;28;20022;-78
2023/10/22 10:20:14;;;;;;;7.15;2.80;;;;;;;;;;4972367;28;20097;-78
2023/10/22 10:22:43;;;;;;;11.10;2.67;;;;;;;;;;4953523;28;20030;-79
2023/10/22 10:25:29;;;;;;;8.55;2.67;;;;;;;;;;4952037;28;20024;-76
2023/10/22 10:27:55;;;;;;;9.20;2.50;;;;;;;;;;4952096;28;20066;-77
2023/10/22 10:30:21;;;;;;;9.82;2.22;;;;;;;;;;4965381;28;20110;-79
2023/10/22 10:32:49;;;;;;;4.43;2.50;;;;;;;;;;4952903;28;20043;-79
2023/10/22 10:35:16;;;;;;;7.55;2.08;;;;;;;;;;4966315;28;20453;-79
2023/10/22 10:38:17;;;;;;;7.00;1.80;;;;;;;;;;4970533;28;20026;-80
2023/10/22 10:40:43;;;;;;;;;;;;;;;;;;4962473;28;20118;-80
2023/10/22 10:43:09;;;;;;;6.60;2.00;;;;;;;;;;4950380;28;19962;-78
2023/10/22 10:45:35;;;;;;;4.60;1.77;;;;;;;;;;4944192;28;20041;-79
2023/10/22 10:48:01;;;;;;;4.18;1.60;;;;;;;;;;4950545;28;20038;-79
2023/10/22 10:50:28;;;;;;;9.43;2.22;;;;;;;;;;4934719;28;20070;-79
2023/10/22 10:52:58;;;;;;;4.38;1.80;;;;;;;;;;4970011;28;20114;-79
2023/10/22 10:55:24;;;;;;;;;;;;;;;;;;4964359;28;20106;-77
2023/10/22 10:57:52;;;;;;;8.45;2.00;;;;;;;;;;4929971;28;20371;-79
2023/10/22 11:00:30;;;;;;;6.20;2.42;;;;;;;;;;4963370;28;20050;-78
2023/10/22 11:03:04;;;;;;;8.68;2.28;;;;;;;;;;4949857;28;20749;-78
2023/10/22 11:05:32;;;;;;;6.85;1.90;;;;;;;;;;4961479;28;20388;-78
2023/10/22 11:07:58;;;;;;;7.28;2.33;;;;;;;;;;4967300;28;20041;-77
2023/10/22 11:10:24;;;;;;;4.20;1.80;;;;;;;;;;4951133;28;20564;-80
2023/10/22 11:12:51;;;;;;;6.80;1.85;;;;;;;;;;4930402;28;20046;-79
2023/10/22 11:15:17;;;;;;;7.43;2.10;;;;;;;;;;4964337;28;21158;-79
2023/10/22 11:17:44;;;;;;;7.63;2.42;;;;;;;;;;4966140;28;20046;-80
2023/10/22 11:20:13;;;;;;;4.35;1.90;;;;;;;;;;4947736;28;20364;-80
2023/10/22 11:22:39;;;;;;;5.28;2.33;;;;;;;;;;4965913;28;20056;-80
2023/10/22 11:25:09;;;;;;;9.45;2.38;;;;;;;;;;4932232;29;20031;-78
2023/10/22 11:27:37;;;;;;;5.65;1.70;;;;;;;;;;4949623;28;20051;-79
2023/10/22 11:30:03;;;;;;;5.50;1.95;;;;;;;;;;4966767;28;20066;-78
2023/10/22 11:32:30;;;;;;;5.63;1.48;;;;;;;;;;4950013;28;20057;-78
2023/10/22 11:35:00;;;;;;;3.20;1.30;;;;;;;;;;4970022;28;20023;-79
2023/10/22 11:37:36;;;;;;;4.22;1.27;;;;;;;;;;4966418;28;20046;-79
2023/10/22 11:40:22;;;;;;;7.65;2.03;;;;;;;;;;4951503;28;20117;-80
2023/10/22 11:42:49;;;;;;;3.13;1.20;;;;;;;;;;4967217;28;20071;-80
2023/10/22 11:45:15;;;;;;;5.10;1.42;;;;;;;;;;4934290;28;20022;-80
2023/10/22 11:47:41;;;;;;;5.07;1.67;;;;;;;;;;4966028;28;20054;-78
2023/10/22 11:50:09;;;;;;;3.72;1.40;;;;;;;;;;4968053;28;20146;-78
2023/10/22 11:52:38;;;;;;;4.03;1.13;;;;;;;;;;4965717;28;20034;-78
2023/10/22 11:55:08;;;;;;;3.65;1.30;;;;;;;;;;4964680;28;20057;-78
2023/10/22 11:57:37;;;;;;;4.55;1.35;;;;;;;;;;4966021;28;20031;-80
2023/10/22 12:00:09;;;;;;;4.40;1.50;;;;;;;;;;4935127;28;20041;-79
2023/10/22 12:02:36;;;;;;;5.22;1.50;;;;;;;;;;4963926;28;20042;-79
2023/10/22 12:05:02;;;;;;;2.65;1.20;;;;;;;;;;4967001;28;20053;-79
2023/10/22 12:07:28;;;;;;;5.60;1.35;;;;;;;;;;4959388;28;20049;-79
2023/10/22 12:09:54;;;;;;;5.70;1.30;;;;;;;;;;4965998;28;20062;-84
2023/10/22 12:12:20;;;;;;;4.90;1.13;;;;;;;;;;4958452;28;20035;-78
2023/10/22 12:14:47;;;;;;;3.92;1.05;;;;;;;;;;4970871;28;20038;-78
2023/10/22 12:17:13;;;;;;;3.50;1.40;;;;;;;;;;4953652;28;20122;-79
2023/10/22 12:19:40;;;;;;;3.17;1.00;;;;;;;;;;4968992;28;20034;-79
2023/10/22 12:22:07;;;;;;;3.85;1.20;;;;;;;;;;4934337;28;20027;-78
2023/10/22 12:24:33;;;;;;;4.10;1.27;;;;;;;;;;4950985;28;20047;-78
2023/10/22 12:26:59;;;;;;;4.38;1.35;;;;;;;;;;4949868;28;20039;-79
2023/10/22 12:29:26;;;;;;;4.60;1.77;;;;;;;;;;4968721;28;20034;-79
2023/10/22 12:31:52;;;;;;;3.75;1.20;;;;;;;;;;4963810;28;20297;-80
2023/10/22 12:34:18;;;;;;;8.68;1.48;;;;;;;;;;4950458;28;20050;-78
2023/10/22 12:36:45;;;;;;;8.30;1.10;;;;;;;;;;4976656;28;20038;-80
2023/10/22 12:39:11;;;;;;;4.75;1.30;;;;;;;;;;4974571;28;20113;-78
2023/10/22 12:41:38;;;;;;;7.72;1.17;;;;;;;;;;4965071;28;20114;-77
2023/10/22 12:44:04;;;;;;;4.90;1.10;;;;;;;;;;4965513;28;20018;-78
2023/10/22 12:46:30;;;;;;;2.90;0.85;;;;;;;;;;4978392;28;20023;-77
2023/10/22 12:48:56;;;;;;;4.82;1.00;;;;;;;;;;4957209;28;20032;-79
2023/10/22 12:51:23;;;;;;;5.45;1.30;;;;;;;;;;4941479;28;20035;-78
2023/10/22 12:53:49;;;;;;;4.03;1.10;;;;;;;;;;4951436;28;20046;-78
2023/10/22 12:56:17;;;;;;;5.93;1.70;;;;;;;;;;4976119;28;20031;-78
2023/10/22 12:58:43;;;;;;;2.88;1.08;;;;;;;;;;4961807;28;20045;-79
2023/10/22 13:01:09;;;;;;;2.42;0.93;;;;;;;;;;4969488;28;20356;-79
2023/10/22 13:03:35;;;;;;;4.53;1.23;;;;;;;;;;4953595;28;20034;-78
2023/10/22 13:06:05;;;;;;;4.20;1.00;;;;;;;;;;4970234;28;20038;-79
2023/10/22 13:08:32;;;;;;;5.73;1.50;;;;;;;;;;4964465;28;20115;-79
2023/10/22 13:10:59;;;;;;;5.03;1.33;;;;;;;;;;4967707;28;20061;-80
2023/10/22 13:13:25;;;;;;;2.95;0.90;;;;;;;;;;4970752;28;20026;-80
2023/10/22 13:15:51;;;;;;;6.30;1.13;;;;;;;;;;4984021;28;20039;-80
2023/10/22 13:18:17;;;;;;;4.70;1.52;;;;;;;;;;4955521;28;20090;-77
2023/10/22 13:20:43;;;;;;;6.30;1.20;;;;;;;;;;4970730;28;20077;-78
2023/10/22 13:23:12;;;;;;;5.40;1.10;;;;;;;;;;4950968;28;20084;-79
2023/10/22 13:25:38;;;;;;;5.88;1.13;;;;;;;;;;4971019;28;20043;-78
2023/10/22 13:28:05;;;;;;;6.00;1.17;;;;;;;;;;4926823;29;20489;-78
2023/10/22 13:30:31;;;;;;;6.65;0.95;;;;;;;;;;4961961;28;20042;-78
2023/10/22 13:32:58;;;;;;;4.45;1.10;;;;;;;;;;4971593;28;20098;-79
2023/10/22 13:35:29;;;;;;;2.28;0.88;;;;;;;;;;4961538;28;20118;-78
2023/10/22 13:37:55;;;;;;;5.13;0.93;;;;;;;;;;4964980;28;20023;-78
2023/10/22 13:40:22;;;;;;;4.22;0.80;;;;;;;;;;4961927;28;20039;-78
2023/10/22 13:42:49;;;;;;;5.03;0.93;;;;;;;;;;4966483;28;20035;-78
2023/10/22 13:45:16;;;;;;;3.08;1.00;;;;;;;;;;4965412;28;20066;-78
2023/10/22 13:47:43;;;;;;;5.68;1.40;;;;;;;;;;4963179;28;20480;-79
2023/10/22 13:50:10;;;;;;;4.93;1.05;;;;;;;;;;4952449;28;20093;-79
2023/10/22 13:52:37;;;;;;;3.15;1.00;;;;;;;;;;4968371;28;20033;-78
2023/10/22 13:55:03;;;;;;;3.70;1.08;;;;;;;;;;4934826;28;20038;-78
2023/10/22 13:57:29;;;;;;;3.38;1.15;;;;;;;;;;4943754;28;20034;-78
2023/10/22 13:59:56;;;;;;;5.13;1.20;;;;;;;;;;4966100;28;20047;-78
2023/10/22 14:02:22;;;;;;;4.90;1.23;;;;;;;;;;4963707;28;20019;-78
2023/10/22 14:04:48;;;;;;;2.95;1.05;;;;;;;;;;4967648;28;20057;-78
2023/10/22 14:07:15;;;;;;;3.42;1.10;;;;;;;;;;4948871;28;20045;-79
2023/10/22 14:09:41;;;;;;;4.00;1.10;;;;;;;;;;4965545;28;20033;-78
2023/10/22 14:12:07;;;;;;;6.30;1.35;;;;;;;;;;4932375;28;20090;-78
2023/10/22 14:14:40;;;;;;;5.65;1.20;;;;;;;;;;4967912;28;20157;-78
2023/10/22 14:17:06;;;;;;;6.70;1.20;;;;;;;;;;4963329;28;20054;-77
2023/10/22 14:19:34;;;;;;;6.30;1.20;;;;;;;;;;4964111;28;20042;-78
2023/10/22 14:22:00;;;;;;;3.35;1.23;;;;;;;;;;4967183;28;20065;-78
2023/10/22 14:24:26;;;;;;;7.13;1.20;;;;;;;;;;4949314;28;20039;-78
2023/10/22 14:26:53;;;;;;;7.32;1.30;;;;;;;;;;4970364;28;20058;-77
2023/10/22 14:29:19;;;;;;;4.75;1.15;;;;;;;;;;4941869;29;20028;-78
2023/10/22 14:31:46;;;;;;;5.20;1.30;;;;;;;;;;4948048;29;20043;-80
2023/10/22 14:34:17;;;;;;;3.22;1.27;;;;;;;;;;4927982;29;20034;-77
2023/10/22 14:36:43;;;;;;;;;;;;;;;;;;4924216;29;20676;-79